sensor_id;sensor_type;location;lat;lon;timestamp;temperature;humidity
39957;DHT22;48483;44.640;7.494;2024-02-21T00:02:20;9.50;96.60
39957;DHT22;48483;44.640;7.494;2024-02-21T00:04:48;9.50;97.10
39957;DHT22;48483;44.640;7.494;2024-02-21T00:07:15;9.40;97.40
39957;DHT22;48483;44.640;7.494;2024-02-21T00:09:41;9.40;97.60
39957;DHT22;48483;44.640;7.494;2024-02-21T00:12:08;9.40;97.50
39957;DHT22;48483;44.640;7.494;2024-02-21T00:14:35;9.40;97.10
39957;DHT22;48483;44.640;7.494;2024-02-21T00:17:01;9.50;97.50
39957;DHT22;48483;44.640;7.494;2024-02-21T00:19:28;9.40;97.90
39957;DHT22;48483;44.640;7.494;2024-02-21T00:21:56;9.30;98.20
39957;DHT22;48483;44.640;7.494;2024-02-21T00:24:22;9.30;98.40
39957;DHT22;48483;44.640;7.494;2024-02-21T00:26:49;9.40;98.30
39957;DHT22;48483;44.640;7.494;2024-02-21T00:29:15;9.30;98.10
39957;DHT22;48483;44.640;7.494;2024-02-21T00:31:42;9.30;98.40
39957;DHT22;48483;44.640;7.494;2024-02-21T00:34:09;9.40;97.90
39957;DHT22;48483;44.640;7.494;2024-02-21T00:36:36;9.40;97.80
39957;DHT22;48483;44.640;7.494;2024-02-21T00:39:04;9.30;97.90
39957;DHT22;48483;44.640;7.494;2024-02-21T00:41:31;9.30;98.10
39957;DHT22;48483;44.640;7.494;2024-02-21T00:43:57;9.30;98.30
39957;DHT22;48483;44.640;7.494;2024-02-21T00:46:24;9.30;98.00
39957;DHT22;48483;44.640;7.494;2024-02-21T00:48:50;9.40;98.10
39957;DHT22;48483;44.640;7.494;2024-02-21T00:51:17;9.40;98.00
39957;DHT22;48483;44.640;7.494;2024-02-21T00:53:43;9.40;98.20
39957;DHT22;48483;44.640;7.494;2024-02-21T00:56:11;9.30;98.30
39957;DHT22;48483;44.640;7.494;2024-02-21T00:58:38;9.30;97.70
39957;DHT22;48483;44.640;7.494;2024-02-21T01:01:04;9.30;97.20
39957;DHT22;48483;44.640;7.494;2024-02-21T01:03:31;9.50;96.00
39957;DHT22;48483;44.640;7.494;2024-02-21T01:05:57;9.60;94.80
39957;DHT22;48483;44.640;7.494;2024-02-21T01:08:24;9.80;93.20
39957;DHT22;48483;44.640;7.494;2024-02-21T01:10:51;9.90;92.00
39957;DHT22;48483;44.640;7.494;2024-02-21T01:13:19;10.00;91.60
39957;DHT22;48483;44.640;7.494;2024-02-21T01:15:46;10.00;92.30
39957;DHT22;48483;44.640;7.494;2024-02-21T01:18:13;10.00;93.00
39957;DHT22;48483;44.640;7.494;2024-02-21T01:20:39;9.90;93.10
39957;DHT22;48483;44.640;7.494;2024-02-21T01:23:06;9.80;93.00
39957;DHT22;48483;44.640;7.494;2024-02-21T01:25:33;9.90;92.50
39957;DHT22;48483;44.640;7.494;2024-02-21T01:27:59;9.90;91.70
39957;DHT22;48483;44.640;7.494;2024-02-21T01:30:27;10.00;91.80
39957;DHT22;48483;44.640;7.494;2024-02-21T01:32:54;9.90;92.60
39957;DHT22;48483;44.640;7.494;2024-02-21T01:35:20;9.90;93.00
39957;DHT22;48483;44.640;7.494;2024-02-21T01:37:47;9.70;93.80
39957;DHT22;48483;44.640;7.494;2024-02-21T01:40:15;9.70;94.40
39957;DHT22;48483;44.640;7.494;2024-02-21T01:42:41;9.60;94.40
39957;DHT22;48483;44.640;7.494;2024-02-21T01:45:08;9.50;94.50
39957;DHT22;48483;44.640;7.494;2024-02-21T01:47:37;9.40;94.60
39957;DHT22;48483;44.640;7.494;2024-02-21T01:50:04;9.30;95.00
39957;DHT22;48483;44.640;7.494;2024-02-21T01:52:31;9.20;95.50
39957;DHT22;48483;44.640;7.494;2024-02-21T01:55:00;9.20;95.90
39957;DHT22;48483;44.640;7.494;2024-02-21T01:57:26;9.20;96.00
39957;DHT22;48483;44.640;7.494;2024-02-21T01:59:55;9.20;95.80
39957;DHT22;48483;44.640;7.494;2024-02-21T02:02:21;9.20;95.50
39957;DHT22;48483;44.640;7.494;2024-02-21T02:04:50;9.20;95.70
39957;DHT22;48483;44.640;7.494;2024-02-21T02:07:18;9.20;95.90
39957;DHT22;48483;44.640;7.494;2024-02-21T02:09:44;9.10;96.00
39957;DHT22;48483;44.640;7.494;2024-02-21T02:12:11;9.10;95.90
39957;DHT22;48483;44.640;7.494;2024-02-21T02:14:37;9.10;96.00
39957;DHT22;48483;44.640;7.494;2024-02-21T02:17:04;9.10;96.20
39957;DHT22;48483;44.640;7.494;2024-02-21T02:19:31;9.00;96.10
39957;DHT22;48483;44.640;7.494;2024-02-21T02:22:08;9.00;95.90
39957;DHT22;48483;44.640;7.494;2024-02-21T02:24:37;8.90;96.20
39957;DHT22;48483;44.640;7.494;2024-02-21T02:27:04;8.80;96.20
39957;DHT22;48483;44.640;7.494;2024-02-21T02:29:32;8.80;96.60
39957;DHT22;48483;44.640;7.494;2024-02-21T02:31:58;8.80;97.00
39957;DHT22;48483;44.640;7.494;2024-02-21T02:34:25;8.70;97.20
39957;DHT22;48483;44.640;7.494;2024-02-21T02:36:51;8.80;97.20
39957;DHT22;48483;44.640;7.494;2024-02-21T02:39:18;8.80;97.30
39957;DHT22;48483;44.640;7.494;2024-02-21T02:41:46;8.90;97.70
39957;DHT22;48483;44.640;7.494;2024-02-21T02:44:13;8.90;97.50
39957;DHT22;48483;44.640;7.494;2024-02-21T02:46:40;8.90;96.80
39957;DHT22;48483;44.640;7.494;2024-02-21T02:49:07;9.00;96.00
39957;DHT22;48483;44.640;7.494;2024-02-21T02:51:33;9.00;95.80
39957;DHT22;48483;44.640;7.494;2024-02-21T02:54:00;9.10;95.20
39957;DHT22;48483;44.640;7.494;2024-02-21T02:56:27;9.10;95.00
39957;DHT22;48483;44.640;7.494;2024-02-21T02:58:55;9.20;94.00
39957;DHT22;48483;44.640;7.494;2024-02-21T03:01:21;9.30;93.10
39957;DHT22;48483;44.640;7.494;2024-02-21T03:03:48;9.30;92.80
39957;DHT22;48483;44.640;7.494;2024-02-21T03:06:14;9.40;93.00
39957;DHT22;48483;44.640;7.494;2024-02-21T03:08:41;9.50;93.50
39957;DHT22;48483;44.640;7.494;2024-02-21T03:11:09;9.50;93.80
39957;DHT22;48483;44.640;7.494;2024-02-21T03:13:37;9.60;93.90
39957;DHT22;48483;44.640;7.494;2024-02-21T03:16:06;9.60;94.10
39957;DHT22;48483;44.640;7.494;2024-02-21T03:18:32;9.60;94.20
39957;DHT22;48483;44.640;7.494;2024-02-21T03:20:59;9.60;94.20
39957;DHT22;48483;44.640;7.494;2024-02-21T03:23:25;9.60;94.20
39957;DHT22;48483;44.640;7.494;2024-02-21T03:25:52;9.60;94.40
39957;DHT22;48483;44.640;7.494;2024-02-21T03:28:19;9.70;94.50
39957;DHT22;48483;44.640;7.494;2024-02-21T03:30:46;9.70;94.70
39957;DHT22;48483;44.640;7.494;2024-02-21T03:33:13;9.60;95.30
39957;DHT22;48483;44.640;7.494;2024-02-21T03:35:40;9.50;95.60
39957;DHT22;48483;44.640;7.494;2024-02-21T03:38:07;9.40;96.10
39957;DHT22;48483;44.640;7.494;2024-02-21T03:40:33;9.30;96.10
39957;DHT22;48483;44.640;7.494;2024-02-21T03:43:00;9.30;96.20
39957;DHT22;48483;44.640;7.494;2024-02-21T03:45:26;9.30;96.20
39957;DHT22;48483;44.640;7.494;2024-02-21T03:47:53;9.30;96.50
39957;DHT22;48483;44.640;7.494;2024-02-21T03:50:21;9.30;96.70
39957;DHT22;48483;44.640;7.494;2024-02-21T03:52:48;9.30;96.70
39957;DHT22;48483;44.640;7.494;2024-02-21T03:55:14;9.40;96.30
39957;DHT22;48483;44.640;7.494;2024-02-21T03:57:41;9.50;96.30
39957;DHT22;48483;44.640;7.494;2024-02-21T04:00:08;9.60;95.80
39957;DHT22;48483;44.640;7.494;2024-02-21T04:02:37;9.70;95.30
39957;DHT22;48483;44.640;7.494;2024-02-21T04:05:04;9.70;95.10
39957;DHT22;48483;44.640;7.494;2024-02-21T04:07:32;9.70;94.80
39957;DHT22;48483;44.640;7.494;2024-02-21T04:09:59;9.80;94.50
39957;DHT22;48483;44.640;7.494;2024-02-21T04:12:25;9.80;94.60
39957;DHT22;48483;44.640;7.494;2024-02-21T04:14:52;9.80;95.30
39957;DHT22;48483;44.640;7.494;2024-02-21T04:17:19;9.60;95.70
39957;DHT22;48483;44.640;7.494;2024-02-21T04:19:45;9.50;96.60
39957;DHT22;48483;44.640;7.494;2024-02-21T04:22:12;9.30;97.00
39957;DHT22;48483;44.640;7.494;2024-02-21T04:24:40;9.30;97.10
39957;DHT22;48483;44.640;7.494;2024-02-21T04:27:06;9.20;97.20
39957;DHT22;48483;44.640;7.494;2024-02-21T04:29:33;9.10;97.80
39957;DHT22;48483;44.640;7.494;2024-02-21T04:32:01;9.00;98.10
39957;DHT22;48483;44.640;7.494;2024-02-21T04:34:29;9.00;98.40
39957;DHT22;48483;44.640;7.494;2024-02-21T04:36:55;8.90;98.30
39957;DHT22;48483;44.640;7.494;2024-02-21T04:39:22;8.80;98.70
39957;DHT22;48483;44.640;7.494;2024-02-21T04:41:50;8.80;99.20
39957;DHT22;48483;44.640;7.494;2024-02-21T04:44:16;8.70;99.60
39957;DHT22;48483;44.640;7.494;2024-02-21T04:46:43;8.80;99.80
39957;DHT22;48483;44.640;7.494;2024-02-21T04:49:10;8.70;99.90
39957;DHT22;48483;44.640;7.494;2024-02-21T04:51:36;8.80;99.90
39957;DHT22;48483;44.640;7.494;2024-02-21T04:54:03;8.70;99.90
39957;DHT22;48483;44.640;7.494;2024-02-21T04:56:30;8.70;99.90
39957;DHT22;48483;44.640;7.494;2024-02-21T04:58:58;8.70;99.90
39957;DHT22;48483;44.640;7.494;2024-02-21T05:01:24;8.70;99.90
39957;DHT22;48483;44.640;7.494;2024-02-21T05:03:51;8.60;99.90
39957;DHT22;48483;44.640;7.494;2024-02-21T05:06:17;8.60;99.90
39957;DHT22;48483;44.640;7.494;2024-02-21T05:08:44;8.50;99.90
39957;DHT22;48483;44.640;7.494;2024-02-21T05:11:11;8.60;99.90
39957;DHT22;48483;44.640;7.494;2024-02-21T05:13:37;8.60;99.90
39957;DHT22;48483;44.640;7.494;2024-02-21T05:16:06;8.60;99.90
39957;DHT22;48483;44.640;7.494;2024-02-21T05:18:33;8.70;99.90
39957;DHT22;48483;44.640;7.494;2024-02-21T05:20:59;8.80;99.90
39957;DHT22;48483;44.640;7.494;2024-02-21T05:23:26;8.70;99.90
39957;DHT22;48483;44.640;7.494;2024-02-21T05:25:52;8.70;99.90
39957;DHT22;48483;44.640;7.494;2024-02-21T05:28:19;8.70;99.90
39957;DHT22;48483;44.640;7.494;2024-02-21T05:30:46;8.70;99.90
39957;DHT22;48483;44.640;7.494;2024-02-21T05:33:14;8.70;99.90
39957;DHT22;48483;44.640;7.494;2024-02-21T05:35:47;8.70;99.90
39957;DHT22;48483;44.640;7.494;2024-02-21T05:38:17;8.70;99.90
39957;DHT22;48483;44.640;7.494;2024-02-21T05:40:44;8.70;99.90
39957;DHT22;48483;44.640;7.494;2024-02-21T05:43:11;8.70;99.80
39957;DHT22;48483;44.640;7.494;2024-02-21T05:45:38;8.70;99.10
39957;DHT22;48483;44.640;7.494;2024-02-21T05:48:05;8.70;98.80
39957;DHT22;48483;44.640;7.494;2024-02-21T05:50:33;8.70;99.50
39957;DHT22;48483;44.640;7.494;2024-02-21T05:52:59;8.60;99.90
39957;DHT22;48483;44.640;7.494;2024-02-21T05:55:26;8.50;99.90
39957;DHT22;48483;44.640;7.494;2024-02-21T05:57:54;8.40;99.90
39957;DHT22;48483;44.640;7.494;2024-02-21T06:00:22;8.40;99.70
39957;DHT22;48483;44.640;7.494;2024-02-21T06:02:48;8.40;99.90
39957;DHT22;48483;44.640;7.494;2024-02-21T06:05:16;8.40;99.60
39957;DHT22;48483;44.640;7.494;2024-02-21T06:07:44;8.40;99.80
39957;DHT22;48483;44.640;7.494;2024-02-21T06:10:10;8.40;99.90
39957;DHT22;48483;44.640;7.494;2024-02-21T06:12:37;8.40;99.90
39957;DHT22;48483;44.640;7.494;2024-02-21T06:15:04;8.40;99.90
39957;DHT22;48483;44.640;7.494;2024-02-21T06:17:31;8.30;99.90
39957;DHT22;48483;44.640;7.494;2024-02-21T06:19:58;8.30;99.90
39957;DHT22;48483;44.640;7.494;2024-02-21T06:22:25;8.40;99.90
39957;DHT22;48483;44.640;7.494;2024-02-21T06:24:53;8.40;99.90
39957;DHT22;48483;44.640;7.494;2024-02-21T06:27:20;8.40;99.90
39957;DHT22;48483;44.640;7.494;2024-02-21T06:29:47;8.40;99.90
39957;DHT22;48483;44.640;7.494;2024-02-21T06:32:13;8.30;99.90
39957;DHT22;48483;44.640;7.494;2024-02-21T06:34:40;8.30;99.90
39957;DHT22;48483;44.640;7.494;2024-02-21T06:37:06;8.30;99.90
39957;DHT22;48483;44.640;7.494;2024-02-21T06:39:33;8.30;99.90
39957;DHT22;48483;44.640;7.494;2024-02-21T06:42:01;8.30;99.90
39957;DHT22;48483;44.640;7.494;2024-02-21T06:44:28;8.30;99.90
39957;DHT22;48483;44.640;7.494;2024-02-21T06:46:55;8.20;99.90
39957;DHT22;48483;44.640;7.494;2024-02-21T06:49:21;8.20;99.90
39957;DHT22;48483;44.640;7.494;2024-02-21T06:51:48;8.30;99.90
39957;DHT22;48483;44.640;7.494;2024-02-21T06:54:14;8.40;99.90
39957;DHT22;48483;44.640;7.494;2024-02-21T06:56:41;8.40;99.90
39957;DHT22;48483;44.640;7.494;2024-02-21T06:59:09;8.60;99.90
39957;DHT22;48483;44.640;7.494;2024-02-21T07:01:36;8.70;99.90
39957;DHT22;48483;44.640;7.494;2024-02-21T07:04:03;8.80;99.90
39957;DHT22;48483;44.640;7.494;2024-02-21T07:06:30;8.90;99.90
39957;DHT22;48483;44.640;7.494;2024-02-21T07:08:57;8.90;99.90
39957;DHT22;48483;44.640;7.494;2024-02-21T07:11:24;9.00;99.90
39957;DHT22;48483;44.640;7.494;2024-02-21T07:13:52;9.10;99.90
39957;DHT22;48483;44.640;7.494;2024-02-21T07:16:20;9.20;99.90
39957;DHT22;48483;44.640;7.494;2024-02-21T07:18:47;9.30;99.90
39957;DHT22;48483;44.640;7.494;2024-02-21T07:21:14;9.40;99.90
39957;DHT22;48483;44.640;7.494;2024-02-21T07:23:41;9.50;99.90
39957;DHT22;48483;44.640;7.494;2024-02-21T07:26:11;9.60;99.90
39957;DHT22;48483;44.640;7.494;2024-02-21T07:28:38;9.80;99.90
39957;DHT22;48483;44.640;7.494;2024-02-21T07:31:05;9.90;99.90
39957;DHT22;48483;44.640;7.494;2024-02-21T07:33:33;10.10;99.90
39957;DHT22;48483;44.640;7.494;2024-02-21T07:36:05;10.20;99.60
39957;DHT22;48483;44.640;7.494;2024-02-21T07:38:31;10.30;99.10
39957;DHT22;48483;44.640;7.494;2024-02-21T07:40:58;10.50;97.60
39957;DHT22;48483;44.640;7.494;2024-02-21T07:43:25;10.60;96.30
39957;DHT22;48483;44.640;7.494;2024-02-21T07:45:53;10.80;94.80
39957;DHT22;48483;44.640;7.494;2024-02-21T07:48:20;10.90;93.20
39957;DHT22;48483;44.640;7.494;2024-02-21T07:50:49;11.10;92.60
39957;DHT22;48483;44.640;7.494;2024-02-21T07:53:15;11.20;92.00
39957;DHT22;48483;44.640;7.494;2024-02-21T07:55:42;11.30;91.60
39957;DHT22;48483;44.640;7.494;2024-02-21T07:58:09;11.30;91.00
39957;DHT22;48483;44.640;7.494;2024-02-21T08:00:35;11.40;90.60
39957;DHT22;48483;44.640;7.494;2024-02-21T08:03:03;11.40;90.10
39957;DHT22;48483;44.640;7.494;2024-02-21T08:05:29;11.50;90.00
39957;DHT22;48483;44.640;7.494;2024-02-21T08:07:57;11.60;90.20
39957;DHT22;48483;44.640;7.494;2024-02-21T08:10:24;11.60;90.20
39957;DHT22;48483;44.640;7.494;2024-02-21T08:12:51;11.60;89.90
39957;DHT22;48483;44.640;7.494;2024-02-21T08:15:17;11.60;89.80
39957;DHT22;48483;44.640;7.494;2024-02-21T08:17:44;11.70;90.20
39957;DHT22;48483;44.640;7.494;2024-02-21T08:20:11;11.70;90.00
39957;DHT22;48483;44.640;7.494;2024-02-21T08:22:38;11.80;90.20
39957;DHT22;48483;44.640;7.494;2024-02-21T08:25:06;11.80;90.10
39957;DHT22;48483;44.640;7.494;2024-02-21T08:27:33;11.90;88.90
39957;DHT22;48483;44.640;7.494;2024-02-21T08:30:00;11.90;89.00
39957;DHT22;48483;44.640;7.494;2024-02-21T08:32:29;11.90;88.50
39957;DHT22;48483;44.640;7.494;2024-02-21T08:34:55;11.90;88.90
39957;DHT22;48483;44.640;7.494;2024-02-21T08:37:22;11.90;88.70
39957;DHT22;48483;44.640;7.494;2024-02-21T08:39:49;11.90;87.70
39957;DHT22;48483;44.640;7.494;2024-02-21T08:42:17;11.90;87.50
39957;DHT22;48483;44.640;7.494;2024-02-21T08:44:44;11.90;86.90
39957;DHT22;48483;44.640;7.494;2024-02-21T08:47:11;11.90;86.80
39957;DHT22;48483;44.640;7.494;2024-02-21T08:49:38;12.00;86.50
39957;DHT22;48483;44.640;7.494;2024-02-21T08:52:05;12.10;87.40
39957;DHT22;48483;44.640;7.494;2024-02-21T08:54:32;12.10;89.40
39957;DHT22;48483;44.640;7.494;2024-02-21T08:57:00;12.20;88.40
39957;DHT22;48483;44.640;7.494;2024-02-21T08:59:28;12.30;89.00
39957;DHT22;48483;44.640;7.494;2024-02-21T09:01:54;12.20;91.20
39957;DHT22;48483;44.640;7.494;2024-02-21T09:04:21;12.30;91.30
39957;DHT22;48483;44.640;7.494;2024-02-21T09:06:47;12.40;91.20
39957;DHT22;48483;44.640;7.494;2024-02-21T09:09:14;12.40;92.10
39957;DHT22;48483;44.640;7.494;2024-02-21T09:11:41;12.40;92.20
39957;DHT22;48483;44.640;7.494;2024-02-21T09:14:07;12.30;92.50
39957;DHT22;48483;44.640;7.494;2024-02-21T09:16:35;12.30;92.20
39957;DHT22;48483;44.640;7.494;2024-02-21T09:19:02;12.20;92.20
39957;DHT22;48483;44.640;7.494;2024-02-21T09:21:29;12.30;92.00
39957;DHT22;48483;44.640;7.494;2024-02-21T09:23:55;12.50;92.00
39957;DHT22;48483;44.640;7.494;2024-02-21T09:26:22;12.60;91.90
39957;DHT22;48483;44.640;7.494;2024-02-21T09:28:49;12.60;91.60
39957;DHT22;48483;44.640;7.494;2024-02-21T09:31:15;12.60;91.10
39957;DHT22;48483;44.640;7.494;2024-02-21T09:33:43;12.60;91.30
39957;DHT22;48483;44.640;7.494;2024-02-21T09:36:10;12.70;91.30
39957;DHT22;48483;44.640;7.494;2024-02-21T09:38:39;12.60;90.40
39957;DHT22;48483;44.640;7.494;2024-02-21T09:41:14;12.60;90.20
39957;DHT22;48483;44.640;7.494;2024-02-21T09:43:42;12.60;90.20
39957;DHT22;48483;44.640;7.494;2024-02-21T09:46:15;12.70;89.60
39957;DHT22;48483;44.640;7.494;2024-02-21T09:48:54;12.70;90.30
39957;DHT22;48483;44.640;7.494;2024-02-21T09:51:29;12.80;90.80
39957;DHT22;48483;44.640;7.494;2024-02-21T09:53:59;12.80;91.10
39957;DHT22;48483;44.640;7.494;2024-02-21T09:56:26;12.90;91.10
39957;DHT22;48483;44.640;7.494;2024-02-21T09:58:53;12.80;91.70
39957;DHT22;48483;44.640;7.494;2024-02-21T10:01:19;12.90;92.60
39957;DHT22;48483;44.640;7.494;2024-02-21T10:03:48;12.90;93.30
39957;DHT22;48483;44.640;7.494;2024-02-21T10:06:16;12.90;93.90
39957;DHT22;48483;44.640;7.494;2024-02-21T10:08:42;13.00;94.00
39957;DHT22;48483;44.640;7.494;2024-02-21T10:11:09;13.00;94.40
39957;DHT22;48483;44.640;7.494;2024-02-21T10:13:36;13.00;94.90
39957;DHT22;48483;44.640;7.494;2024-02-21T10:16:05;13.10;95.60
39957;DHT22;48483;44.640;7.494;2024-02-21T10:18:32;13.00;96.60
39957;DHT22;48483;44.640;7.494;2024-02-21T10:21:05;13.00;97.50
39957;DHT22;48483;44.640;7.494;2024-02-21T10:23:43;13.10;98.40
39957;DHT22;48483;44.640;7.494;2024-02-21T10:26:10;13.10;99.20
39957;DHT22;48483;44.640;7.494;2024-02-21T10:28:37;13.10;99.60
39957;DHT22;48483;44.640;7.494;2024-02-21T10:31:08;13.10;99.90
39957;DHT22;48483;44.640;7.494;2024-02-21T10:33:36;13.20;99.90
39957;DHT22;48483;44.640;7.494;2024-02-21T10:36:09;13.30;99.90
39957;DHT22;48483;44.640;7.494;2024-02-21T10:38:37;13.30;99.90
39957;DHT22;48483;44.640;7.494;2024-02-21T10:41:04;13.20;99.90
39957;DHT22;48483;44.640;7.494;2024-02-21T10:43:37;13.20;99.90
39957;DHT22;48483;44.640;7.494;2024-02-21T10:46:05;13.20;99.90
39957;DHT22;48483;44.640;7.494;2024-02-21T10:48:38;13.20;99.90
39957;DHT22;48483;44.640;7.494;2024-02-21T10:51:15;13.30;99.90
39957;DHT22;48483;44.640;7.494;2024-02-21T10:53:45;13.30;99.90
39957;DHT22;48483;44.640;7.494;2024-02-21T10:56:21;13.10;99.90
39957;DHT22;48483;44.640;7.494;2024-02-21T10:58:52;13.00;99.90
39957;DHT22;48483;44.640;7.494;2024-02-21T11:01:19;13.10;99.90
39957;DHT22;48483;44.640;7.494;2024-02-21T11:03:48;13.20;99.90
39957;DHT22;48483;44.640;7.494;2024-02-21T11:06:18;13.20;99.60
39957;DHT22;48483;44.640;7.494;2024-02-21T11:08:45;13.30;99.20
39957;DHT22;48483;44.640;7.494;2024-02-21T11:11:13;13.20;98.30
39957;DHT22;48483;44.640;7.494;2024-02-21T11:13:45;13.30;98.30
39957;DHT22;48483;44.640;7.494;2024-02-21T11:16:21;13.30;98.40
39957;DHT22;48483;44.640;7.494;2024-02-21T11:18:48;13.40;98.20
39957;DHT22;48483;44.640;7.494;2024-02-21T11:21:17;13.40;98.30
39957;DHT22;48483;44.640;7.494;2024-02-21T11:23:44;13.30;98.90
39957;DHT22;48483;44.640;7.494;2024-02-21T11:26:20;13.30;99.00
39957;DHT22;48483;44.640;7.494;2024-02-21T11:28:56;13.40;98.90
39957;DHT22;48483;44.640;7.494;2024-02-21T11:31:23;13.30;99.20
39957;DHT22;48483;44.640;7.494;2024-02-21T11:33:51;13.40;99.60
39957;DHT22;48483;44.640;7.494;2024-02-21T11:36:24;13.30;99.40
39957;DHT22;48483;44.640;7.494;2024-02-21T11:38:51;13.30;99.70
39957;DHT22;48483;44.640;7.494;2024-02-21T11:41:19;13.40;99.90
39957;DHT22;48483;44.640;7.494;2024-02-21T11:43:48;13.30;99.90
39957;DHT22;48483;44.640;7.494;2024-02-21T11:46:15;13.40;99.90
39957;DHT22;48483;44.640;7.494;2024-02-21T11:48:41;13.40;99.90
39957;DHT22;48483;44.640;7.494;2024-02-21T11:51:11;13.50;99.90
39957;DHT22;48483;44.640;7.494;2024-02-21T11:53:39;13.70;99.90
39957;DHT22;48483;44.640;7.494;2024-02-21T11:56:06;13.60;99.90
39957;DHT22;48483;44.640;7.494;2024-02-21T11:58:33;13.50;99.90
39957;DHT22;48483;44.640;7.494;2024-02-21T12:01:00;13.50;99.90
39957;DHT22;48483;44.640;7.494;2024-02-21T12:03:29;13.50;99.90
39957;DHT22;48483;44.640;7.494;2024-02-21T12:05:56;13.70;99.90
39957;DHT22;48483;44.640;7.494;2024-02-21T12:08:25;13.80;99.90
39957;DHT22;48483;44.640;7.494;2024-02-21T12:10:53;13.90;99.90
39957;DHT22;48483;44.640;7.494;2024-02-21T12:13:22;13.90;99.90
39957;DHT22;48483;44.640;7.494;2024-02-21T12:15:49;13.90;99.90
39957;DHT22;48483;44.640;7.494;2024-02-21T12:18:16;13.80;99.90
39957;DHT22;48483;44.640;7.494;2024-02-21T12:20:43;13.80;99.40
39957;DHT22;48483;44.640;7.494;2024-02-21T12:23:10;13.70;97.00
39957;DHT22;48483;44.640;7.494;2024-02-21T12:25:39;13.70;97.60
39957;DHT22;48483;44.640;7.494;2024-02-21T12:28:07;13.60;98.70
39957;DHT22;48483;44.640;7.494;2024-02-21T12:30:34;13.60;98.90
39957;DHT22;48483;44.640;7.494;2024-02-21T12:33:04;13.60;98.30
39957;DHT22;48483;44.640;7.494;2024-02-21T12:35:31;13.70;97.40
39957;DHT22;48483;44.640;7.494;2024-02-21T12:37:59;13.70;96.70
39957;DHT22;48483;44.640;7.494;2024-02-21T12:40:26;13.80;96.50
39957;DHT22;48483;44.640;7.494;2024-02-21T12:42:59;13.90;96.50
39957;DHT22;48483;44.640;7.494;2024-02-21T12:45:27;13.90;95.20
39957;DHT22;48483;44.640;7.494;2024-02-21T12:47:53;13.70;94.80
39957;DHT22;48483;44.640;7.494;2024-02-21T12:50:20;13.80;94.80
39957;DHT22;48483;44.640;7.494;2024-02-21T12:52:49;13.90;95.30
39957;DHT22;48483;44.640;7.494;2024-02-21T12:55:16;13.90;94.70
39957;DHT22;48483;44.640;7.494;2024-02-21T12:57:43;13.90;94.70
39957;DHT22;48483;44.640;7.494;2024-02-21T13:00:11;13.90;95.10
39957;DHT22;48483;44.640;7.494;2024-02-21T13:02:39;13.90;95.60
39957;DHT22;48483;44.640;7.494;2024-02-21T13:05:06;13.90;95.90
39957;DHT22;48483;44.640;7.494;2024-02-21T13:07:33;13.90;96.20
39957;DHT22;48483;44.640;7.494;2024-02-21T13:10:00;13.90;96.60
39957;DHT22;48483;44.640;7.494;2024-02-21T13:12:27;14.00;96.40
39957;DHT22;48483;44.640;7.494;2024-02-21T13:14:54;14.10;96.40
39957;DHT22;48483;44.640;7.494;2024-02-21T13:17:20;14.00;96.80
39957;DHT22;48483;44.640;7.494;2024-02-21T13:19:50;14.00;96.70
39957;DHT22;48483;44.640;7.494;2024-02-21T13:22:17;14.00;96.40
39957;DHT22;48483;44.640;7.494;2024-02-21T13:24:43;13.70;96.00
39957;DHT22;48483;44.640;7.494;2024-02-21T13:27:10;13.80;96.00
39957;DHT22;48483;44.640;7.494;2024-02-21T13:29:38;13.70;96.40
39957;DHT22;48483;44.640;7.494;2024-02-21T13:32:05;13.80;96.90
39957;DHT22;48483;44.640;7.494;2024-02-21T13:34:32;13.90;97.20
39957;DHT22;48483;44.640;7.494;2024-02-21T13:37:00;13.90;97.60
39957;DHT22;48483;44.640;7.494;2024-02-21T13:39:27;13.90;97.70
39957;DHT22;48483;44.640;7.494;2024-02-21T13:41:53;14.00;97.60
39957;DHT22;48483;44.640;7.494;2024-02-21T13:44:20;13.90;97.40
39957;DHT22;48483;44.640;7.494;2024-02-21T13:46:47;13.90;97.70
39957;DHT22;48483;44.640;7.494;2024-02-21T13:49:13;14.00;98.00
39957;DHT22;48483;44.640;7.494;2024-02-21T13:51:40;13.90;98.40
39957;DHT22;48483;44.640;7.494;2024-02-21T13:54:10;13.90;98.40
39957;DHT22;48483;44.640;7.494;2024-02-21T13:56:37;13.90;98.40
39957;DHT22;48483;44.640;7.494;2024-02-21T13:59:04;14.00;98.40
39957;DHT22;48483;44.640;7.494;2024-02-21T14:01:31;14.10;98.10
39957;DHT22;48483;44.640;7.494;2024-02-21T14:04:01;14.10;98.00
39957;DHT22;48483;44.640;7.494;2024-02-21T14:06:28;14.10;98.00
39957;DHT22;48483;44.640;7.494;2024-02-21T14:08:54;14.10;97.70
39957;DHT22;48483;44.640;7.494;2024-02-21T14:11:23;14.00;97.20
39957;DHT22;48483;44.640;7.494;2024-02-21T14:13:49;14.00;96.90
39957;DHT22;48483;44.640;7.494;2024-02-21T14:16:16;14.00;97.70
39957;DHT22;48483;44.640;7.494;2024-02-21T14:18:43;14.00;98.10
39957;DHT22;48483;44.640;7.494;2024-02-21T14:21:10;14.10;98.20
39957;DHT22;48483;44.640;7.494;2024-02-21T14:23:37;14.20;98.60
39957;DHT22;48483;44.640;7.494;2024-02-21T14:26:04;14.20;98.20
39957;DHT22;48483;44.640;7.494;2024-02-21T14:28:32;14.10;96.90
39957;DHT22;48483;44.640;7.494;2024-02-21T14:31:02;14.10;96.60
39957;DHT22;48483;44.640;7.494;2024-02-21T14:33:30;14.10;96.00
39957;DHT22;48483;44.640;7.494;2024-02-21T14:35:57;14.20;96.10
39957;DHT22;48483;44.640;7.494;2024-02-21T14:38:24;14.20;95.10
39957;DHT22;48483;44.640;7.494;2024-02-21T14:40:50;14.30;95.20
39957;DHT22;48483;44.640;7.494;2024-02-21T14:43:17;14.20;95.20
39957;DHT22;48483;44.640;7.494;2024-02-21T14:45:45;14.30;95.30
39957;DHT22;48483;44.640;7.494;2024-02-21T14:48:14;14.20;93.40
39957;DHT22;48483;44.640;7.494;2024-02-21T14:50:41;14.10;93.40
39957;DHT22;48483;44.640;7.494;2024-02-21T14:53:09;14.10;93.80
39957;DHT22;48483;44.640;7.494;2024-02-21T14:55:35;14.10;93.70
39957;DHT22;48483;44.640;7.494;2024-02-21T14:58:02;14.10;94.30
39957;DHT22;48483;44.640;7.494;2024-02-21T15:00:29;14.10;94.40
39957;DHT22;48483;44.640;7.494;2024-02-21T15:02:59;14.00;94.10
39957;DHT22;48483;44.640;7.494;2024-02-21T15:05:25;14.00;94.00
39957;DHT22;48483;44.640;7.494;2024-02-21T15:07:52;14.10;94.80
39957;DHT22;48483;44.640;7.494;2024-02-21T15:10:19;14.10;95.30
39957;DHT22;48483;44.640;7.494;2024-02-21T15:12:46;14.10;95.80
39957;DHT22;48483;44.640;7.494;2024-02-21T15:15:13;14.10;94.80
39957;DHT22;48483;44.640;7.494;2024-02-21T15:17:40;14.10;94.80
39957;DHT22;48483;44.640;7.494;2024-02-21T15:20:09;14.00;94.40
39957;DHT22;48483;44.640;7.494;2024-02-21T15:22:35;14.00;94.40
39957;DHT22;48483;44.640;7.494;2024-02-21T15:25:02;13.90;94.10
39957;DHT22;48483;44.640;7.494;2024-02-21T15:27:32;13.90;93.00
39957;DHT22;48483;44.640;7.494;2024-02-21T15:29:59;13.80;93.40
39957;DHT22;48483;44.640;7.494;2024-02-21T15:32:27;13.80;93.50
39957;DHT22;48483;44.640;7.494;2024-02-21T15:34:54;13.90;93.80
39957;DHT22;48483;44.640;7.494;2024-02-21T15:37:22;13.80;94.30
39957;DHT22;48483;44.640;7.494;2024-02-21T15:39:49;13.80;94.80